Palm Springs, CA

3:20 PM PDT on August 31, 2015 (GMT -0700)
Racquet Club Estates | | Change Station
CLOSE
Current Station
Personal Weather Station
Location: Palm Springs, CA
Elevation: 581 ft
Nearby Weather Stations

Elev 581 ft 33.85 °N, 116.54 °W | Updated 15 minutes ago

Partly Cloudy
Partly Cloudy
104.9 °F
Feels Like 101 °F
N
4.2
Wind Variable Wind from NW

Today
High -- | Low -- °F
--% Chance of Precip.
Yesterday
High -- | Low -- °F
Precip. -- in
6:19 AM 7:13 PM
Waning Gibbous, 93% visible
Pressure 29.73 in
Visibility 10.0 miles
Clouds Scattered Clouds 20000 ft
Heat Index 101 °F
Dew Point 46 °F
Humidity 14%
Rainfall 0.00 in
Snow Depth Not available.
UV 6 out of 12
Pollen 6.20 out of 12
Air Quality Not available.
Flu Activity Not available.
METAR KPSP 312153Z AUTO VRB06KT 10SM SCT200 40/06 A2975 RMK AO2 SLP068 T04000056 TSNO
Pressure 29.73 in
Visibility 10.0 miles
Clouds Scattered Clouds 20000 ft
Heat Index 101 °F
Dew Point 46 °F
Humidity 14%
Rainfall 0.00 in
Snow Depth Not available.
UV 6 out of 12
Pollen 6.20 out of 12
Air Quality Not available.
Flu Activity Not available.
METAR KPSP 312153Z AUTO VRB06KT 10SM SCT200 40/06 A2975 RMK AO2 SLP068 T04000056 TSNO

10-Day Weather Forecast

×

Almanac

Astronomy

Aug. 31, 2015 Rise Set
Actual Time
Civil Twilight
Nautical Twilight
Astronomical Twilight
Moon
Length of Visible Light
Length of Day
Tomorrow will be .
, % of the Moon is Illuminated

Today's Extremes

State Highs State Lows

Community

WunderPhotos

Upload Photos

1,851,390 photos uploaded!

WunderBlogs® & News

Nearby

Air Quality

  Air Quality AQ Index Pollutant
Not available.

Snow Depth

Station Depth Elevation

Earthquake Activity

City Distance Mag. Time & Date
Minimum magnitude displayed is 2.5.

Coastal Water Temperatures

Place Temperature

Stations

Nearby Weather Stations

Station Location Temp. Windchill Dew Point Humidity Wind Precip. Elev Updated Type